Accueil
METAR-TAF:

METAR-TAF

Aéroports :

Farnborough, Angleterre

latitude: 51-17N, longitude: 000-46W, altitude: 65 m

Observation

Le bulletin a été fait il y a 16 minutes, à 20:20 UTC
Vent 9 kt de ouest/sud-ouest
Température 14°C
Humidité 88%
Pression 1009 hPa
Visibilité 10 km ou plus
Quelques nuages à une hauteur de 1400 ft

METAR: EGLF 222020Z 25009KT 9999 FEW014 14/12 Q1009

Heure: 21:36 (20:36 UTC)

Prévision

Le bulletin a été fait il y a 3 heures et 35 minutes, à 17:01 UTC
Prévision valable du 22 à 18 UTC au 22 à 21 UTC
Vent 9 kt de ouest/sud-ouest
Visibilité 10 km ou plus
Nuages épars à une hauteur de 1500 ft
Temporairement
du 22 à 18 UTC au 22 à 21 UTC
Visibilité: 7000 m
Nuages fragmentés à une hauteur de 1200 ft
pluie, averses de pluie,

TAF: EGLF 221701Z 2218/2221 25009KT 9999 SCT015 TEMPO 2218/2221 7000 RA SHRA BKN012

Observations et prévisions météorologiques de plus de 4000 aéroports (messages METAR et TAF).

Les stations disponibles sont représentées par des disques jaunes et rouges sur la carte.

Passer la souris dessus pour voir le nom de la station.

Cliquer dessus pour voir les observations et prévisions météorologiques.

Pour changer de carte: cliquez sur les boutons verts avec une croix noire pour zoomer, sur le bouton vert avec un tiret pour effectuer un zoom arrière, ou sur les flèches vertes pour les cartes adjacentes.


METAR-TAF: